createdAt,value
2018-01-04T00:00:13.113Z,72.26
2018-01-04T00:01:13.401Z,71.88
2018-01-04T00:02:13.413Z,72.07
2018-01-04T00:03:13.427Z,71.78
2018-01-04T00:04:13.162Z,71.88
2018-01-04T00:05:13.179Z,72.26
2018-01-04T00:06:13.468Z,72.16
2018-01-04T00:07:13.478Z,71.88
2018-01-04T00:08:13.267Z,71.78
2018-01-04T00:09:13.565Z,72.16
2018-01-04T00:10:13.565Z,72.07
2018-01-04T00:11:13.301Z,71.97
2018-01-04T00:12:13.566Z,71.88
2018-01-04T00:13:13.609Z,72.07
2018-01-04T00:14:13.571Z,71.97
2018-01-04T00:15:13.608Z,71.69
2018-01-04T00:16:13.599Z,71.69
2018-01-04T00:17:13.370Z,71.59
2018-01-04T00:18:13.627Z,71.22
2018-01-04T00:19:13.379Z,71.88
2018-01-04T00:20:13.688Z,71.69
2018-01-04T00:21:13.386Z,71.69
2018-01-04T00:22:13.677Z,72.26
2018-01-04T00:23:13.700Z,72.26
2018-01-04T00:24:13.706Z,72.26
2018-01-04T00:25:13.721Z,71.78
2018-01-04T00:26:13.734Z,71.69
2018-01-04T00:27:13.742Z,71.78
2018-01-04T00:28:13.761Z,71.69
2018-01-04T00:29:13.495Z,71.88
2018-01-04T00:30:13.781Z,71.69
2018-01-04T00:31:13.802Z,71.88
2018-01-04T00:32:13.531Z,71.69
2018-01-04T00:33:13.545Z,71.41
2018-01-04T00:34:13.837Z,71.41
2018-01-04T00:35:13.848Z,71.59
2018-01-04T00:36:13.862Z,71.31
2018-01-04T00:37:13.872Z,71.59
2018-01-04T00:38:13.890Z,71.41
2018-01-04T00:39:13.899Z,71.59
2018-01-04T00:40:13.636Z,71.5
2018-01-04T00:41:13.928Z,71.69
2018-01-04T00:42:13.940Z,71.59
2018-01-04T00:43:13.953Z,71.59
2018-01-04T00:44:13.964Z,71.5
2018-01-04T00:45:13.977Z,71.69
2018-01-04T00:46:13.717Z,71.22
2018-01-04T00:47:14.001Z,71.5
2018-01-04T00:48:14.018Z,71.12
2018-01-04T00:49:13.759Z,71.41
2018-01-04T00:50:14.051Z,71.22
2018-01-04T00:51:14.058Z,71.69
2018-01-04T00:52:14.072Z,71.69
2018-01-04T00:53:13.812Z,71.22
2018-01-04T00:54:14.094Z,71.22
2018-01-04T00:55:14.115Z,71.41
2018-01-04T00:56:14.124Z,71.12
2018-01-04T00:57:14.139Z,71.69
2018-01-04T00:58:14.152Z,71.88
2018-01-04T00:59:14.166Z,71.97
2018-01-04T01:00:13.901Z,72.16
2018-01-04T01:01:14.193Z,71.88
2018-01-04T01:02:13.927Z,71.78
2018-01-04T01:03:13.941Z,72.26
2018-01-04T01:04:14.226Z,72.55
2018-01-04T01:05:14.244Z,72.55
2018-01-04T01:06:13.983Z,72.35
2018-01-04T01:07:13.994Z,72.16
2018-01-04T01:08:14.281Z,72.26
2018-01-04T01:09:14.020Z,72.55
2018-01-04T01:10:14.031Z,72.64
2018-01-04T01:11:14.045Z,73.02
2018-01-04T01:12:14.335Z,72.64
2018-01-04T01:13:14.350Z,72.92
2018-01-04T01:14:14.082Z,72.74
2018-01-04T01:15:14.387Z,72.64
2018-01-04T01:16:14.110Z,73.21
2018-01-04T01:17:14.123Z,72.92
2018-01-04T01:18:14.415Z,72.92
2018-01-04T01:19:14.427Z,73.11
2018-01-04T01:20:14.439Z,72.92
2018-01-04T01:21:14.453Z,72.83
2018-01-04T01:22:14.189Z,72.92
2018-01-04T01:23:14.200Z,73.11
2018-01-04T01:24:14.494Z,72.92
2018-01-04T01:25:14.505Z,72.92
2018-01-04T01:26:14.246Z,73.11
2018-01-04T01:27:14.254Z,73.69
2018-01-04T01:28:14.544Z,73.3
2018-01-04T01:29:14.557Z,73.4
2018-01-04T01:30:14.300Z,73.11
2018-01-04T01:31:14.305Z,73.21
2018-01-04T01:32:14.322Z,73.02
2018-01-04T01:33:14.614Z,73.4
2018-01-04T01:34:14.396Z,73.78
2018-01-04T01:35:14.365Z,73.78
2018-01-04T01:36:14.656Z,74.07
2018-01-04T01:37:14.664Z,73.49
2018-01-04T01:38:14.399Z,73.55
2018-01-04T01:39:14.686Z,73.55
2018-01-04T01:40:14.699Z,73.46
2018-01-04T01:41:14.439Z,73.4
2018-01-04T01:42:14.724Z,73.93
2018-01-04T01:43:14.737Z,74.03
2018-01-04T01:44:14.752Z,74.16
2018-01-04T01:45:14.487Z,74.63
2018-01-04T01:46:14.782Z,74.54
2018-01-04T01:47:14.516Z,74.51
2018-01-04T01:48:14.527Z,74.98
2018-01-04T01:49:14.593Z,74.79
2018-01-04T01:50:14.839Z,74.51
2018-01-04T01:51:14.843Z,74.31
2018-01-04T01:52:14.857Z,74.51
2018-01-04T01:53:14.592Z,74.31
2018-01-04T01:54:14.881Z,74.41
2018-01-04T01:55:14.893Z,74.79
2018-01-04T01:56:14.907Z,75.17
2018-01-04T01:57:14.921Z,75.26
2018-01-04T01:58:14.658Z,74.98
2018-01-04T01:59:14.674Z,75.17
2018-01-04T02:00:14.956Z,75.26
2018-01-04T02:01:14.979Z,75.55
2018-01-04T02:02:14.716Z,75.26
2018-01-04T02:03:15.005Z,75.17
2018-01-04T02:04:15.011Z,75.17
2018-01-04T02:05:15.024Z,75.07
2018-01-04T02:06:14.760Z,74.98
2018-01-04T02:07:15.050Z,75.17
2018-01-04T02:08:15.063Z,75.36
2018-01-04T02:09:14.801Z,75.17
2018-01-04T02:10:15.087Z,75.17
2018-01-04T02:11:14.826Z,75.55
2018-01-04T02:12:15.115Z,75.26
2018-01-04T02:13:15.126Z,75.36
2018-01-04T02:14:14.864Z,75.26
2018-01-04T02:15:15.163Z,75.84
2018-01-04T02:16:14.890Z,75.74
2018-01-04T02:17:15.185Z,75.55
2018-01-04T02:18:15.194Z,75.64
2018-01-04T02:19:14.931Z,75.74
2018-01-04T02:20:14.940Z,75.55
2018-01-04T02:21:15.227Z,75.55
2018-01-04T02:22:14.969Z,75.74
2018-01-04T02:23:15.259Z,75.55
2018-01-04T02:24:14.995Z,75.45
2018-01-04T02:25:15.009Z,75.36
2018-01-04T02:26:15.019Z,75.45
2018-01-04T02:27:15.039Z,75.45
2018-01-04T02:28:15.321Z,75.84
2018-01-04T02:29:15.338Z,75.74
2018-01-04T02:30:15.352Z,76.21
2018-01-04T02:31:15.359Z,76.31
2018-01-04T02:32:15.098Z,75.84
2018-01-04T02:33:15.110Z,76.31
2018-01-04T02:34:15.398Z,76.21
2018-01-04T02:35:15.412Z,75.93
2018-01-04T02:36:15.429Z,76.31
2018-01-04T02:37:15.439Z,76.21
2018-01-04T02:38:15.449Z,76.31
2018-01-04T02:39:15.461Z,76.12
2018-01-04T02:40:15.214Z,76.21
2018-01-04T02:41:15.491Z,76.03
2018-01-04T02:42:15.230Z,76.03
2018-01-04T02:43:15.519Z,76.03
2018-01-04T02:44:15.257Z,76.12
2018-01-04T02:45:15.264Z,75.93
2018-01-04T02:46:15.277Z,76.03
2018-01-04T02:47:15.569Z,75.74
2018-01-04T02:48:15.301Z,75.74
2018-01-04T02:49:15.315Z,76.59
2018-01-04T02:50:15.604Z,76.5
2018-01-04T02:51:15.618Z,76.12
2018-01-04T02:52:15.627Z,75.93
2018-01-04T02:53:15.644Z,76.12
2018-01-04T02:54:15.668Z,75.74
2018-01-04T02:55:15.392Z,75.93
2018-01-04T02:56:15.740Z,76.12
2018-01-04T02:57:15.417Z,76.03
2018-01-04T02:58:15.705Z,76.12
2018-01-04T02:59:15.720Z,75.93
2018-01-04T03:00:15.753Z,76.03
2018-01-04T03:01:15.746Z,76.21
2018-01-04T03:02:15.765Z,76.21
2018-01-04T03:03:15.492Z,76.31
2018-01-04T03:04:15.842Z,76.21
2018-01-04T03:05:15.519Z,76.21
2018-01-04T03:06:15.534Z,76.03
2018-01-04T03:07:15.821Z,76.12
2018-01-04T03:08:15.840Z,75.55
2018-01-04T03:09:15.570Z,75.93
2018-01-04T03:10:15.586Z,76.03
2018-01-04T03:11:15.595Z,76.03
2018-01-04T03:12:15.885Z,76.12
2018-01-04T03:13:15.621Z,75.84
2018-01-04T03:14:15.911Z,76.03
2018-01-04T03:15:16.023Z,76.03
2018-01-04T03:16:15.700Z,75.84
2018-01-04T03:17:15.675Z,75.74
2018-01-04T03:18:15.961Z,75.93
2018-01-04T03:19:15.700Z,75.93
2018-01-04T03:20:15.990Z,75.84
2018-01-04T03:21:16.006Z,75.93
2018-01-04T03:22:16.017Z,76.31
2018-01-04T03:23:16.026Z,76.21
2018-01-04T03:24:15.760Z,76.21
2018-01-04T03:25:15.776Z,76.03
2018-01-04T03:26:15.786Z,75.93
2018-01-04T03:27:16.081Z,76.12
2018-01-04T03:28:15.811Z,76.03
2018-01-04T03:29:15.825Z,76.03
2018-01-04T03:30:16.118Z,76.12
2018-01-04T03:31:16.133Z,76.12
2018-01-04T03:32:16.139Z,76.12
2018-01-04T03:33:15.877Z,75.93
2018-01-04T03:34:16.163Z,76.21
2018-01-04T03:35:15.901Z,76.03
2018-01-04T03:36:15.912Z,76.03
2018-01-04T03:37:16.202Z,75.55
2018-01-04T03:38:16.216Z,75.84
2018-01-04T03:39:16.229Z,75.93
2018-01-04T03:40:15.962Z,76.21
2018-01-04T03:41:15.975Z,76.03
2018-01-04T03:42:15.991Z,76.03
2018-01-04T03:43:16.279Z,76.12
2018-01-04T03:44:16.015Z,76.21
2018-01-04T03:45:16.303Z,76.21
2018-01-04T03:46:16.392Z,76.12
2018-01-04T03:47:16.327Z,75.93
2018-01-04T03:48:16.345Z,75.84
2018-01-04T03:49:16.354Z,75.93
2018-01-04T03:50:16.420Z,76.31
2018-01-04T03:51:16.103Z,76.21
2018-01-04T03:52:16.394Z,75.84
2018-01-04T03:53:16.404Z,75.84
2018-01-04T03:54:16.144Z,76.03
2018-01-04T03:55:16.434Z,75.93
2018-01-04T03:56:16.447Z,75.64
2018-01-04T03:57:16.180Z,75.74
2018-01-04T03:58:16.192Z,75.74
2018-01-04T03:59:16.481Z,75.74
2018-01-04T04:00:16.504Z,75.55
2018-01-04T04:01:16.231Z,75.64
2018-01-04T04:02:16.518Z,75.64
2018-01-04T04:03:16.541Z,75.55
2018-01-04T04:04:16.557Z,75.64
2018-01-04T04:05:16.557Z,75.55
2018-01-04T04:06:16.571Z,75.36
2018-01-04T04:07:16.583Z,75.07
2018-01-04T04:08:16.319Z,75.55
2018-01-04T04:09:16.609Z,75.36
2018-01-04T04:10:16.623Z,75.26
2018-01-04T04:11:16.358Z,75.26
2018-01-04T04:12:16.370Z,75.17
2018-01-04T04:13:16.661Z,75.26
2018-01-04T04:14:16.398Z,75.45
2018-01-04T04:15:16.408Z,75.45
2018-01-04T04:16:16.423Z,75.17
2018-01-04T04:17:16.712Z,75.07
2018-01-04T04:18:16.724Z,75.07
2018-01-04T04:19:16.736Z,74.98
2018-01-04T04:20:16.472Z,75.36
2018-01-04T04:21:16.485Z,75.17
2018-01-04T04:23:16.512Z,74.41
2018-01-04T04:24:16.523Z,75.17
2018-01-04T04:25:16.816Z,74.41
2018-01-04T04:26:16.823Z,74.51
2018-01-04T04:27:16.841Z,74.51
2018-01-04T04:28:16.848Z,74.51
2018-01-04T04:29:16.589Z,74.98
2018-01-04T04:30:16.600Z,74.79
2018-01-04T04:31:16.945Z,74.88
2018-01-04T04:32:16.901Z,74.79
2018-01-04T04:33:16.643Z,74.88
2018-01-04T04:34:16.926Z,74.73
2018-01-04T04:35:16.666Z,74.69
2018-01-04T04:36:16.960Z,74.69
2018-01-04T04:37:16.689Z,74.51
2018-01-04T04:38:16.707Z,74.51
2018-01-04T04:39:16.991Z,74.88
2018-01-04T04:40:17.006Z,75.26
2018-01-04T04:41:17.018Z,75.55
2018-01-04T04:42:16.754Z,75.26
2018-01-04T04:43:16.764Z,74.98
2018-01-04T04:44:17.055Z,75.55
2018-01-04T04:45:17.067Z,75.93
2018-01-04T04:46:17.134Z,76.31
2018-01-04T04:47:17.092Z,76.12
2018-01-04T04:48:16.829Z,76.03
2018-01-04T04:49:17.116Z,75.74
2018-01-04T04:50:17.130Z,76.03
2018-01-04T04:51:16.873Z,76.21
2018-01-04T04:52:17.161Z,75.64
2018-01-04T04:53:16.892Z,76.5
2018-01-04T04:54:17.180Z,76.4
2018-01-04T04:55:17.206Z,76.59
2018-01-04T04:56:17.206Z,76.78
2018-01-04T04:57:17.220Z,76.97
2018-01-04T04:58:16.958Z,76.97
2018-01-04T04:59:16.968Z,76.69
2018-01-04T05:00:17.258Z,76.88
2018-01-04T05:01:17.054Z,76.59
2018-01-04T05:02:17.295Z,76.78
2018-01-04T05:03:17.020Z,76.59
2018-01-04T05:04:17.309Z,76.59
2018-01-04T05:05:17.046Z,76.88
2018-01-04T05:06:17.060Z,76.59
2018-01-04T05:07:17.076Z,76.59
2018-01-04T05:08:17.084Z,76.78
2018-01-04T05:09:17.097Z,76.59
2018-01-04T05:10:17.110Z,76.59
2018-01-04T05:11:17.122Z,76.69
2018-01-04T05:12:17.135Z,76.69
2018-01-04T05:13:17.424Z,76.5
2018-01-04T05:14:17.163Z,77.07
2018-01-04T05:15:17.172Z,77.07
2018-01-04T05:16:17.462Z,76.31
2018-01-04T05:17:17.475Z,76.88
2018-01-04T05:18:17.487Z,77.17
2018-01-04T05:19:17.223Z,77.17
2018-01-04T05:20:17.236Z,77.17
2018-01-04T05:21:17.527Z,77.36
2018-01-04T05:22:17.541Z,77.17
2018-01-04T05:23:17.550Z,77.07
2018-01-04T05:24:17.291Z,76.97
2018-01-04T05:25:17.575Z,77.26
2018-01-04T05:26:17.589Z,77.07
2018-01-04T05:27:17.326Z,76.78
2018-01-04T05:28:17.340Z,76.69
2018-01-04T05:29:17.629Z,76.69
2018-01-04T05:30:17.640Z,76.88
2018-01-04T05:31:17.653Z,76.69
2018-01-04T05:32:17.441Z,76.59
2018-01-04T05:33:17.402Z,76.78
2018-01-04T05:34:17.691Z,76.5
2018-01-04T05:35:17.718Z,76.78
2018-01-04T05:36:17.441Z,76.88
2018-01-04T05:37:17.782Z,76.5
2018-01-04T05:38:17.742Z,76.88
2018-01-04T05:39:17.479Z,76.5
2018-01-04T05:40:17.769Z,76.31
2018-01-04T05:41:17.780Z,76.78
2018-01-04T05:42:17.521Z,76.21
2018-01-04T05:43:17.810Z,76.31
2018-01-04T05:44:17.543Z,76.31
2018-01-04T05:45:17.563Z,76.31
2018-01-04T05:46:17.842Z,75.74
2018-01-04T05:47:17.861Z,75.93
2018-01-04T05:48:17.876Z,76.5
2018-01-04T05:49:17.882Z,76.5
2018-01-04T05:50:17.907Z,76.69
2018-01-04T05:51:17.908Z,76.69
2018-01-04T05:52:17.647Z,76.59
2018-01-04T05:53:17.936Z,76.31
2018-01-04T05:54:17.953Z,76.59
2018-01-04T05:55:17.961Z,76.59
2018-01-04T05:56:17.975Z,76.5
2018-01-04T05:57:17.986Z,76.31
2018-01-04T05:58:18.003Z,76.5
2018-01-04T05:59:18.015Z,76.4
2018-01-04T06:00:18.024Z,75.84
2018-01-04T06:01:17.759Z,76.21
2018-01-04T06:02:17.772Z,76.12
2018-01-04T06:03:18.066Z,76.03
2018-01-04T06:04:17.799Z,76.21
2018-01-04T06:05:17.812Z,76.21
2018-01-04T06:06:18.106Z,76.03
2018-01-04T06:07:17.839Z,76.03
2018-01-04T06:08:18.124Z,76.03
2018-01-04T06:09:18.138Z,76.03
2018-01-04T06:10:18.160Z,76.31
2018-01-04T06:11:18.166Z,76.21
2018-01-04T06:12:18.299Z,75.93
2018-01-04T06:13:18.187Z,75.93
2018-01-04T06:14:18.206Z,76.31
2018-01-04T06:15:18.218Z,76.21
2018-01-04T06:16:17.957Z,75.93
2018-01-04T06:17:17.963Z,75.55
2018-01-04T06:18:18.253Z,75.64
2018-01-04T06:19:18.268Z,75.84
2018-01-04T06:20:18.282Z,75.74
2018-01-04T06:21:18.289Z,75.74
2018-01-04T06:22:18.032Z,75.64
2018-01-04T06:23:18.043Z,75.74
2018-01-04T06:24:18.052Z,75.74
2018-01-04T06:25:18.343Z,75.74
2018-01-04T06:26:18.079Z,75.55
2018-01-04T06:27:18.367Z,75.84
2018-01-04T06:28:18.108Z,75.64
2018-01-04T06:29:18.390Z,75.36
2018-01-04T06:30:18.135Z,75.55
2018-01-04T06:31:18.145Z,75.36
2018-01-04T06:32:18.435Z,75.07
2018-01-04T06:33:18.446Z,75.17
2018-01-04T06:34:18.471Z,75.26
2018-01-04T06:35:18.471Z,75.07
2018-01-04T06:36:18.209Z,75.07
2018-01-04T06:37:18.224Z,75.26
2018-01-04T06:38:18.508Z,75.07
2018-01-04T06:39:18.520Z,75.21
2018-01-04T06:40:18.531Z,75.36
2018-01-04T06:41:18.273Z,75.68
2018-01-04T06:42:18.560Z,75.55
2018-01-04T06:43:18.570Z,75.26
2018-01-04T06:44:18.590Z,75.21
2018-01-04T06:45:18.598Z,75.11
2018-01-04T06:46:18.608Z,75.49
2018-01-04T06:47:18.626Z,75.49
2018-01-04T06:48:18.636Z,75.3
2018-01-04T06:49:18.650Z,74.73
2018-01-04T06:50:18.662Z,74.88
2018-01-04T06:51:18.681Z,74.73
2018-01-04T06:52:18.693Z,74.73
2018-01-04T06:53:18.707Z,74.69
2018-01-04T06:54:18.721Z,74.82
2018-01-04T06:55:18.729Z,74.73
2018-01-04T06:56:18.735Z,75.02
2018-01-04T06:57:18.477Z,74.92
2018-01-04T06:58:18.764Z,74.82
2018-01-04T06:59:18.780Z,74.63
2018-01-04T07:00:18.786Z,73.93
2018-01-04T07:01:18.525Z,73.78
2018-01-04T07:02:18.818Z,74.54
2018-01-04T07:03:18.826Z,74.41
2018-01-04T07:04:18.840Z,75.02
2018-01-04T07:05:18.853Z,74.63
2018-01-04T07:06:18.874Z,74.69
2018-01-04T07:07:18.877Z,74.73
2018-01-04T07:08:18.891Z,73.97
2018-01-04T07:09:18.908Z,74.69
2018-01-04T07:10:18.917Z,74.22
2018-01-04T07:11:18.930Z,74.26
2018-01-04T07:12:18.943Z,74.63
2018-01-04T07:13:18.970Z,73.88
2018-01-04T07:14:18.975Z,74.26
2018-01-04T07:15:18.980Z,74.12
2018-01-04T07:16:18.994Z,74.22
2018-01-04T07:17:18.731Z,74.63
2018-01-04T07:18:19.021Z,74.63
2018-01-04T07:19:19.036Z,74.41
2018-01-04T07:20:19.051Z,74.51
2018-01-04T07:21:19.060Z,74.16
2018-01-04T07:22:18.795Z,74.35
2018-01-04T07:23:19.085Z,74.35
2018-01-04T07:24:19.097Z,74.26
2018-01-04T07:25:19.115Z,74.26
2018-01-04T07:26:19.123Z,74.03
2018-01-04T07:27:19.147Z,74.69
2018-01-04T07:28:19.151Z,74.63
2018-01-04T07:29:19.163Z,74.63
2018-01-04T07:30:19.176Z,74.63
2018-01-04T07:31:19.207Z,75.11
2018-01-04T07:32:19.203Z,74.82
2018-01-04T07:33:18.939Z,75.3
2018-01-04T07:34:19.225Z,75.21
2018-01-04T07:35:18.978Z,75.21
2018-01-04T07:36:19.252Z,75.4
2018-01-04T07:37:18.988Z,75.21
2018-01-04T07:38:19.330Z,75.4
2018-01-04T07:39:19.016Z,74.44
2018-01-04T07:40:19.310Z,74.73
2018-01-04T07:41:19.317Z,74.73
2018-01-04T07:42:19.336Z,74.92
2018-01-04T07:43:19.344Z,74.73
2018-01-04T07:44:19.078Z,74.92
2018-01-04T07:45:19.091Z,74.82
2018-01-04T07:46:19.379Z,75.21
2018-01-04T07:47:19.392Z,75.4
2018-01-04T07:48:19.410Z,75.02
2018-01-04T07:49:19.425Z,75.3
2018-01-04T07:50:19.159Z,75.11
2018-01-04T07:51:19.168Z,75.11
2018-01-04T07:52:19.459Z,75.4
2018-01-04T07:53:19.194Z,75.02
2018-01-04T07:54:19.481Z,75.3
2018-01-04T07:55:19.497Z,75.21
2018-01-04T07:56:19.581Z,75.02
2018-01-04T07:57:19.523Z,74.44
2018-01-04T07:58:19.592Z,74.54
2018-01-04T07:59:19.550Z,74.63
2018-01-04T08:00:19.289Z,74.73
2018-01-04T08:01:19.574Z,74.16
2018-01-04T08:02:19.311Z,74.63
2018-01-04T08:03:19.324Z,74.63
2018-01-04T08:04:19.614Z,74.73
2018-01-04T08:05:19.625Z,74.82
2018-01-04T08:06:19.642Z,74.73
2018-01-04T08:07:19.376Z,74.92
2018-01-04T08:08:19.666Z,74.73
2018-01-04T08:09:19.680Z,75.02
2018-01-04T08:10:19.414Z,74.73
2018-01-04T08:11:19.705Z,74.73
2018-01-04T08:12:19.720Z,74.26
2018-01-04T08:13:19.457Z,74.44
2018-01-04T08:14:19.743Z,73.97
2018-01-04T08:15:19.769Z,73.97
2018-01-04T08:16:19.767Z,73.91
2018-01-04T08:17:19.810Z,73.78
2018-01-04T08:18:19.521Z,73.69
2018-01-04T08:19:19.809Z,73.4
2018-01-04T08:20:19.824Z,73.4
2018-01-04T08:21:19.835Z,73.69
2018-01-04T08:22:19.846Z,73.59
2018-01-04T08:23:19.586Z,73.91
2018-01-04T08:24:19.873Z,73.78
2018-01-04T08:25:19.888Z,73.88
2018-01-04T08:26:19.900Z,73.49
2018-01-04T08:27:19.913Z,72.92
2018-01-04T08:28:19.650Z,72.83
2018-01-04T08:29:19.938Z,73.59
2018-01-04T08:30:19.955Z,72.74
2018-01-04T08:31:19.965Z,73.11
2018-01-04T08:32:19.708Z,73.69
2018-01-04T08:33:19.992Z,73.11
2018-01-04T08:34:19.729Z,73.4
2018-01-04T08:35:19.746Z,73.21
2018-01-04T08:36:20.029Z,73.3
2018-01-04T08:37:20.051Z,73.4
2018-01-04T08:38:20.060Z,73.34
2018-01-04T08:39:20.072Z,73.63
2018-01-04T08:40:20.084Z,72.96
2018-01-04T08:41:20.103Z,73.63
2018-01-04T08:42:20.112Z,73.06
2018-01-04T08:43:20.134Z,72.77
2018-01-04T08:44:20.136Z,72.58
2018-01-04T08:45:20.154Z,72.86
2018-01-04T08:46:19.891Z,72.96
2018-01-04T08:47:20.180Z,72.67
2018-01-04T08:48:20.189Z,72.86
2018-01-04T08:49:20.203Z,72.96
2018-01-04T08:50:20.219Z,73.06
2018-01-04T08:51:20.231Z,73.06
2018-01-04T08:52:20.245Z,72.2
2018-01-04T08:53:20.259Z,72.39
2018-01-04T08:54:20.269Z,72.39
2018-01-04T08:55:20.011Z,72.58
2018-01-04T08:56:20.296Z,72.58
2018-01-04T08:57:20.313Z,72.39
2018-01-04T08:58:20.049Z,72.58
2018-01-04T08:59:20.337Z,72.77
2018-01-04T09:00:20.354Z,72.01
2018-01-04T09:01:20.364Z,71.82
2018-01-04T09:02:20.107Z,71.97
2018-01-04T09:03:20.392Z,72.35
2018-01-04T09:04:20.402Z,72.16
2018-01-04T09:05:20.419Z,71.78
2018-01-04T09:06:20.430Z,71.78
2018-01-04T09:07:20.442Z,71.78
2018-01-04T09:08:20.468Z,71.97
2018-01-04T09:09:20.473Z,71.97
2018-01-04T09:10:20.481Z,72.49
2018-01-04T09:11:20.499Z,71.97
2018-01-04T09:12:20.509Z,72.26
2018-01-04T09:13:20.524Z,72.2
2018-01-04T09:14:20.260Z,71.82
2018-01-04T09:15:20.277Z,72.2
2018-01-04T09:16:20.566Z,72.11
2018-01-04T09:17:20.301Z,72.2
2018-01-04T09:18:20.587Z,72.39
2018-01-04T09:19:20.606Z,72.2
2018-01-04T09:20:20.617Z,72.39
2018-01-04T09:21:20.353Z,71.72
2018-01-04T09:22:20.639Z,71.72
2018-01-04T09:23:20.659Z,71.72
2018-01-04T09:24:20.668Z,71.63
2018-01-04T09:25:20.410Z,71.82
2018-01-04T09:26:20.696Z,71.63
2018-01-04T09:27:20.484Z,71.44
2018-01-04T09:28:20.724Z,71.25
2018-01-04T09:29:20.738Z,71.15
2018-01-04T09:30:20.747Z,71.72
2018-01-04T09:31:20.760Z,71.44
2018-01-04T09:32:20.779Z,71.72
2018-01-04T09:33:20.513Z,71.72
2018-01-04T09:34:20.802Z,71.53
2018-01-04T09:35:20.539Z,71.44
2018-01-04T09:36:20.556Z,71.63
2018-01-04T09:37:20.843Z,71.72
2018-01-04T09:38:20.856Z,71.53
2018-01-04T09:39:20.593Z,71.06
2018-01-04T09:40:20.884Z,71.15
2018-01-04T09:41:20.901Z,71.25
2018-01-04T09:42:20.635Z,71.25
2018-01-04T09:43:20.923Z,71.15
2018-01-04T09:44:20.935Z,71.25
2018-01-04T09:45:20.672Z,71.15
2018-01-04T09:46:20.686Z,70.87
2018-01-04T09:47:20.700Z,70.87
2018-01-04T09:48:20.989Z,70.49
2018-01-04T09:49:21.005Z,70.87
2018-01-04T09:50:21.019Z,70.58
2018-01-04T09:51:21.030Z,70.3
2018-01-04T09:52:21.049Z,70.49
2018-01-04T09:53:20.780Z,70.97
2018-01-04T09:54:21.075Z,70.87
2018-01-04T09:55:21.081Z,70.58
2018-01-04T09:56:21.096Z,70.49
2018-01-04T09:57:21.112Z,70.3
2018-01-04T09:58:21.123Z,70.3
2018-01-04T09:59:21.136Z,70.68
2018-01-04T10:00:21.158Z,70.2
2018-01-04T10:01:20.890Z,70.3
2018-01-04T10:02:21.160Z,70.3
2018-01-04T10:03:21.190Z,70.3
2018-01-04T10:04:21.206Z,70.2
2018-01-04T10:05:21.220Z,70.3
2018-01-04T10:06:21.231Z,70.58
2018-01-04T10:07:20.972Z,70.39
2018-01-04T10:08:20.985Z,70.49
2018-01-04T10:09:21.274Z,70.68
2018-01-04T10:10:21.062Z,70.58
2018-01-04T10:11:21.300Z,70.33
2018-01-04T10:12:21.315Z,70.33
2018-01-04T10:13:21.327Z,70.52
2018-01-04T10:14:21.343Z,70.49
2018-01-04T10:15:21.410Z,70.72
2018-01-04T10:16:21.368Z,70.33
2018-01-04T10:17:21.381Z,70.58
2018-01-04T10:18:21.398Z,70.97
2018-01-04T10:19:21.408Z,70.9
2018-01-04T10:20:21.524Z,71.19
2018-01-04T10:21:21.439Z,71.15
2018-01-04T10:22:21.176Z,70.87
2018-01-04T10:23:21.504Z,71.76
2018-01-04T10:24:21.479Z,71.67
2018-01-04T10:25:21.497Z,71.28
2018-01-04T10:26:21.230Z,71.57
2018-01-04T10:27:21.523Z,71.57
2018-01-04T10:28:21.260Z,71.38
2018-01-04T10:29:21.589Z,71.95
2018-01-04T10:30:21.616Z,71.91
2018-01-04T10:31:21.577Z,72.42
2018-01-04T10:32:21.594Z,72.52
2018-01-04T10:33:21.602Z,72.2
2018-01-04T10:34:21.339Z,71.95
2018-01-04T10:35:21.357Z,72.2
2018-01-04T10:36:21.643Z,72.3
2018-01-04T10:37:21.663Z,72.05
2018-01-04T10:38:21.671Z,72.14
2018-01-04T10:39:21.682Z,72.2
2018-01-04T10:40:21.422Z,72.14
2018-01-04T10:41:21.716Z,72.52
2018-01-04T10:42:21.726Z,72.2
2018-01-04T10:43:21.782Z,72.24
2018-01-04T10:44:21.484Z,72.14
2018-01-04T10:45:21.774Z,72.05
2018-01-04T10:46:21.802Z,72.24
2018-01-04T10:47:21.794Z,72.2
2018-01-04T10:48:21.812Z,72.33
2018-01-04T10:49:21.824Z,72.52
2018-01-04T10:50:21.838Z,71.86
2018-01-04T10:51:21.853Z,71.86
2018-01-04T10:52:21.862Z,71.38
2018-01-04T10:53:21.881Z,71.67
2018-01-04T10:54:21.889Z,71.28
2018-01-04T10:55:21.907Z,71.38
2018-01-04T10:56:21.645Z,71.19
2018-01-04T10:57:21.930Z,71.28
2018-01-04T10:58:21.943Z,71.28
2018-01-04T10:59:22.024Z,71.47
2018-01-04T11:00:21.696Z,71.28
2018-01-04T11:01:21.712Z,71.38
2018-01-04T11:02:22.000Z,71.47
2018-01-04T11:03:22.017Z,71.57
2018-01-04T11:04:22.028Z,71.47
2018-01-04T11:05:22.044Z,71.28
2018-01-04T11:06:22.069Z,71.47
2018-01-04T11:07:22.068Z,71.47
2018-01-04T11:08:21.809Z,71.57
2018-01-04T11:09:22.096Z,71
2018-01-04T11:10:22.114Z,71
2018-01-04T11:11:22.123Z,70.81
2018-01-04T11:12:22.139Z,71.38
2018-01-04T11:13:22.158Z,71.95
2018-01-04T11:14:22.167Z,71.67
2018-01-04T11:15:22.177Z,71.19
2018-01-04T11:16:22.242Z,71.28
2018-01-04T11:17:21.934Z,71
2018-01-04T11:18:22.225Z,71.28
2018-01-04T11:19:22.234Z,71.28
2018-01-04T11:20:21.972Z,71.19
2018-01-04T11:21:22.317Z,70.52
2018-01-04T11:22:22.284Z,70.52
2018-01-04T11:23:22.014Z,70.52
2018-01-04T11:24:22.307Z,70.62
2018-01-04T11:25:22.323Z,70.24
2018-01-04T11:26:22.386Z,70.52
2018-01-04T11:27:22.356Z,70.52
2018-01-04T11:28:22.375Z,70.52
2018-01-04T11:29:22.393Z,70.33
2018-01-04T11:30:22.111Z,70.43
2018-01-04T11:31:22.182Z,70.33
2018-01-04T11:32:22.467Z,70.33
2018-01-04T11:33:22.429Z,70.05
2018-01-04T11:34:22.166Z,70.33
2018-01-04T11:35:22.187Z,70.62
2018-01-04T11:36:22.473Z,70.43
2018-01-04T11:37:22.487Z,70.24
2018-01-04T11:38:22.221Z,70.72
2018-01-04T11:39:22.515Z,70.52
2018-01-04T11:40:22.527Z,70.72
2018-01-04T11:41:22.590Z,70.52
2018-01-04T11:42:22.556Z,70.52
2018-01-04T11:43:22.574Z,70.43
2018-01-04T11:44:22.583Z,70.14
2018-01-04T11:45:22.594Z,69.85
2018-01-04T11:46:22.612Z,70.05
2018-01-04T11:47:22.625Z,69.48
2018-01-04T11:48:22.644Z,69.29
2018-01-04T11:49:22.674Z,69.67
2018-01-04T11:50:22.390Z,69.57
2018-01-04T11:51:22.683Z,69.19
2018-01-04T11:52:22.789Z,69.48
2018-01-04T11:53:22.713Z,69.19
2018-01-04T11:54:22.448Z,69.38
2018-01-04T11:55:22.737Z,69.29
2018-01-04T11:56:22.753Z,69.19
2018-01-04T11:57:22.490Z,69.57
2018-01-04T11:58:22.821Z,69.38
2018-01-04T11:59:22.795Z,68.52
2018-01-04T12:00:22.809Z,68.62
2018-01-04T12:01:22.821Z,69.48
2018-01-04T12:02:22.837Z,68.52
2018-01-04T12:03:22.576Z,69.19
2018-01-04T12:04:22.870Z,69
2018-01-04T12:05:22.885Z,69.1
2018-01-04T12:06:22.891Z,68.9
2018-01-04T12:07:22.632Z,69.57
2018-01-04T12:08:22.923Z,69.29
2018-01-04T12:09:22.659Z,69.48
2018-01-04T12:10:22.969Z,69.29
2018-01-04T12:11:22.968Z,69
2018-01-04T12:12:22.702Z,68.9
2018-01-04T12:13:22.992Z,69.29
2018-01-04T12:14:22.730Z,69.29
2018-01-04T12:15:23.020Z,68.9
2018-01-04T12:16:23.034Z,68.9
2018-01-04T12:17:23.048Z,69
2018-01-04T12:18:23.063Z,68.9
2018-01-04T12:19:23.076Z,69.19
2018-01-04T12:20:23.091Z,69.29
2018-01-04T12:21:23.105Z,69.19
2018-01-04T12:22:23.123Z,69.57
2018-01-04T12:23:23.131Z,69.1
2018-01-04T12:24:23.148Z,69.29
2018-01-04T12:25:23.162Z,69
2018-01-04T12:26:22.899Z,69.29
2018-01-04T12:27:22.914Z,68.71
2018-01-04T12:28:23.204Z,68.52
2018-01-04T12:29:23.217Z,68.52
2018-01-04T12:30:23.232Z,69.38
2018-01-04T12:31:23.249Z,69.38
2018-01-04T12:32:23.260Z,69.1
2018-01-04T12:33:22.998Z,68.9
2018-01-04T12:34:23.298Z,69.1
2018-01-04T12:35:23.308Z,69
2018-01-04T12:36:23.317Z,69.85
2018-01-04T12:37:23.056Z,68.9
2018-01-04T12:38:23.344Z,69.57
2018-01-04T12:39:23.364Z,69.38
2018-01-04T12:40:23.098Z,69.1
2018-01-04T12:41:23.408Z,69.1
2018-01-04T12:42:23.408Z,69.57
2018-01-04T12:43:23.420Z,69.19
2018-01-04T12:44:23.432Z,69.29
2018-01-04T12:45:23.448Z,69.57
2018-01-04T12:46:23.459Z,69.19
2018-01-04T12:47:23.474Z,69
2018-01-04T12:48:23.214Z,69.38
2018-01-04T12:49:23.502Z,69.38
2018-01-04T12:50:23.522Z,69.38
2018-01-04T12:51:23.532Z,69.38
2018-01-04T12:52:23.544Z,69.48
2018-01-04T12:53:23.563Z,69.85
2018-01-04T12:54:23.297Z,70.33
2018-01-04T12:55:23.311Z,69.57
2018-01-04T12:56:23.602Z,69.57